Rotan, Texas
Current Conditions -  °F | °C
As of 2:15 PM on Thursday 23 Oct 2014 (Local Time) from KSWW Reporting Station
Clear Clear  
Wind Chill: 75°   Ceiling: Unl
Heat Index: 75°   Visibility: 10mi
Dew Point: 61°   Wind: 12mph
Humidity: 60%   Direction: 230°SW
Pressure: 30.15"   Gusts: NA
Location:  32.85°N, 100.47°W
Report Text: KSWW 231915Z AUTO 23010KT 10SM CLR 24/16 A3015 RMK AO2 T02400159
Loading
Personal Weather Stations






























Interactive Weather Map New forecast layout! Learn more

10-Day Weather Forecast

Advertisements
Track Severe Weather on mobile